sensor_id;sensor_type;location;lat;lon;timestamp;P1;durP1;ratioP1;P2;durP2;ratioP2
22665;SDS011;11499;49.486;11.104;2023-05-18T00:01:58;6.23;;;1.90;;
22665;SDS011;11499;49.486;11.104;2023-05-18T00:04:24;4.57;;;1.90;;
22665;SDS011;11499;49.486;11.104;2023-05-18T00:08:53;6.77;;;2.77;;
22665;SDS011;11499;49.486;11.104;2023-05-18T00:11:19;5.77;;;2.10;;
22665;SDS011;11499;49.486;11.104;2023-05-18T00:13:45;5.93;;;2.17;;
22665;SDS011;11499;49.486;11.104;2023-05-18T00:16:11;6.67;;;2.50;;
22665;SDS011;11499;49.486;11.104;2023-05-18T00:18:39;4.77;;;2.60;;
22665;SDS011;11499;49.486;11.104;2023-05-18T00:21:05;7.73;;;2.57;;
22665;SDS011;11499;49.486;11.104;2023-05-18T00:23:33;6.77;;;2.70;;
22665;SDS011;11499;49.486;11.104;2023-05-18T00:25:59;6.40;;;2.67;;
22665;SDS011;11499;49.486;11.104;2023-05-18T00:28:25;4.83;;;2.60;;
22665;SDS011;11499;49.486;11.104;2023-05-18T00:30:51;10.03;;;2.70;;
22665;SDS011;11499;49.486;11.104;2023-05-18T00:35:30;7.70;;;2.40;;
22665;SDS011;11499;49.486;11.104;2023-05-18T00:37:56;5.30;;;2.80;;
22665;SDS011;11499;49.486;11.104;2023-05-18T00:40:21;7.67;;;2.90;;
22665;SDS011;11499;49.486;11.104;2023-05-18T00:42:49;6.70;;;2.70;;
22665;SDS011;11499;49.486;11.104;2023-05-18T00:45:15;6.77;;;2.70;;
22665;SDS011;11499;49.486;11.104;2023-05-18T00:47:42;6.40;;;2.70;;
22665;SDS011;11499;49.486;11.104;2023-05-18T00:50:07;5.43;;;2.50;;
22665;SDS011;11499;49.486;11.104;2023-05-18T00:52:34;5.03;;;2.60;;
22665;SDS011;11499;49.486;11.104;2023-05-18T00:55:00;5.07;;;2.60;;
22665;SDS011;11499;49.486;11.104;2023-05-18T00:57:26;4.30;;;2.30;;
22665;SDS011;11499;49.486;11.104;2023-05-18T01:02:41;5.17;;;2.20;;
22665;SDS011;11499;49.486;11.104;2023-05-18T01:05:09;7.00;;;2.73;;
22665;SDS011;11499;49.486;11.104;2023-05-18T01:07:39;3.67;;;2.40;;
22665;SDS011;11499;49.486;11.104;2023-05-18T01:10:09;6.70;;;2.67;;
22665;SDS011;11499;49.486;11.104;2023-05-18T01:12:47;7.73;;;3.10;;
22665;SDS011;11499;49.486;11.104;2023-05-18T01:15:21;5.00;;;2.40;;
22665;SDS011;11499;49.486;11.104;2023-05-18T01:20:55;5.37;;;2.70;;
22665;SDS011;11499;49.486;11.104;2023-05-18T01:29:52;4.97;;;2.50;;
22665;SDS011;11499;49.486;11.104;2023-05-18T01:32:21;8.27;;;3.60;;
22665;SDS011;11499;49.486;11.104;2023-05-18T01:34:46;3.87;;;2.60;;
22665;SDS011;11499;49.486;11.104;2023-05-18T01:37:12;5.87;;;2.90;;
22665;SDS011;11499;49.486;11.104;2023-05-18T01:39:38;6.23;;;2.60;;
22665;SDS011;11499;49.486;11.104;2023-05-18T01:42:06;10.03;;;2.83;;
22665;SDS011;11499;49.486;11.104;2023-05-18T01:44:39;5.53;;;2.67;;
22665;SDS011;11499;49.486;11.104;2023-05-18T01:47:09;9.97;;;2.90;;
22665;SDS011;11499;49.486;11.104;2023-05-18T01:49:41;8.10;;;3.60;;
22665;SDS011;11499;49.486;11.104;2023-05-18T01:52:08;6.43;;;2.80;;
22665;SDS011;11499;49.486;11.104;2023-05-18T01:57:14;7.03;;;3.20;;
22665;SDS011;11499;49.486;11.104;2023-05-18T01:59:42;5.80;;;2.90;;
22665;SDS011;11499;49.486;11.104;2023-05-18T02:02:08;8.90;;;3.17;;
22665;SDS011;11499;49.486;11.104;2023-05-18T02:04:35;6.63;;;3.27;;
22665;SDS011;11499;49.486;11.104;2023-05-18T02:07:00;6.47;;;3.30;;
22665;SDS011;11499;49.486;11.104;2023-05-18T02:09:26;6.63;;;2.87;;
22665;SDS011;11499;49.486;11.104;2023-05-18T02:11:52;6.53;;;3.07;;
22665;SDS011;11499;49.486;11.104;2023-05-18T02:14:17;5.40;;;2.93;;
22665;SDS011;11499;49.486;11.104;2023-05-18T02:16:42;6.23;;;3.17;;
22665;SDS011;11499;49.486;11.104;2023-05-18T02:19:10;5.73;;;2.90;;
22665;SDS011;11499;49.486;11.104;2023-05-18T02:24:22;7.93;;;3.27;;
22665;SDS011;11499;49.486;11.104;2023-05-18T02:26:48;5.70;;;2.97;;
22665;SDS011;11499;49.486;11.104;2023-05-18T02:29:17;6.00;;;3.00;;
22665;SDS011;11499;49.486;11.104;2023-05-18T02:31:42;8.10;;;2.80;;
22665;SDS011;11499;49.486;11.104;2023-05-18T02:34:08;5.90;;;3.23;;
22665;SDS011;11499;49.486;11.104;2023-05-18T02:36:34;9.33;;;3.63;;
22665;SDS011;11499;49.486;11.104;2023-05-18T02:39:06;6.00;;;2.93;;
22665;SDS011;11499;49.486;11.104;2023-05-18T02:41:33;6.00;;;3.37;;
22665;SDS011;11499;49.486;11.104;2023-05-18T02:43:59;6.23;;;3.13;;
22665;SDS011;11499;49.486;11.104;2023-05-18T02:46:26;6.47;;;3.10;;
22665;SDS011;11499;49.486;11.104;2023-05-18T02:51:18;8.20;;;3.50;;
22665;SDS011;11499;49.486;11.104;2023-05-18T02:53:45;4.83;;;2.67;;
22665;SDS011;11499;49.486;11.104;2023-05-18T02:56:11;8.53;;;2.80;;
22665;SDS011;11499;49.486;11.104;2023-05-18T02:58:37;4.93;;;2.80;;
22665;SDS011;11499;49.486;11.104;2023-05-18T03:01:03;5.20;;;2.80;;
22665;SDS011;11499;49.486;11.104;2023-05-18T03:03:31;3.83;;;2.57;;
22665;SDS011;11499;49.486;11.104;2023-05-18T03:05:58;6.30;;;2.73;;
22665;SDS011;11499;49.486;11.104;2023-05-18T03:08:24;6.87;;;3.53;;
22665;SDS011;11499;49.486;11.104;2023-05-18T03:10:50;4.40;;;2.67;;
22665;SDS011;11499;49.486;11.104;2023-05-18T03:13:16;8.10;;;3.17;;
22665;SDS011;11499;49.486;11.104;2023-05-18T03:18:32;5.40;;;3.00;;
22665;SDS011;11499;49.486;11.104;2023-05-18T03:20:57;6.27;;;2.90;;
22665;SDS011;11499;49.486;11.104;2023-05-18T03:23:25;3.53;;;2.63;;
22665;SDS011;11499;49.486;11.104;2023-05-18T03:25:51;4.63;;;3.00;;
22665;SDS011;11499;49.486;11.104;2023-05-18T03:28:18;7.87;;;3.27;;
22665;SDS011;11499;49.486;11.104;2023-05-18T03:30:44;5.77;;;3.03;;
22665;SDS011;11499;49.486;11.104;2023-05-18T03:33:10;6.43;;;2.63;;
22665;SDS011;11499;49.486;11.104;2023-05-18T03:35:36;4.23;;;2.70;;
22665;SDS011;11499;49.486;11.104;2023-05-18T03:38:04;6.60;;;2.50;;
22665;SDS011;11499;49.486;11.104;2023-05-18T03:40:32;4.00;;;2.27;;
22665;SDS011;11499;49.486;11.104;2023-05-18T03:45:30;4.13;;;2.30;;
22665;SDS011;11499;49.486;11.104;2023-05-18T03:47:56;5.03;;;2.57;;
22665;SDS011;11499;49.486;11.104;2023-05-18T03:50:21;5.50;;;2.73;;
22665;SDS011;11499;49.486;11.104;2023-05-18T03:52:47;12.47;;;3.00;;
22665;SDS011;11499;49.486;11.104;2023-05-18T03:55:12;5.53;;;2.70;;
22665;SDS011;11499;49.486;11.104;2023-05-18T03:57:38;4.10;;;2.53;;
22665;SDS011;11499;49.486;11.104;2023-05-18T04:00:04;7.10;;;4.30;;
22665;SDS011;11499;49.486;11.104;2023-05-18T04:02:36;6.47;;;2.63;;
22665;SDS011;11499;49.486;11.104;2023-05-18T04:05:02;5.07;;;2.13;;
22665;SDS011;11499;49.486;11.104;2023-05-18T04:07:28;4.83;;;2.50;;
22665;SDS011;11499;49.486;11.104;2023-05-18T04:12:35;4.13;;;2.57;;
22665;SDS011;11499;49.486;11.104;2023-05-18T04:15:01;5.17;;;2.77;;
22665;SDS011;11499;49.486;11.104;2023-05-18T04:17:28;6.50;;;2.80;;
22665;SDS011;11499;49.486;11.104;2023-05-18T04:19:53;6.03;;;2.67;;
22665;SDS011;11499;49.486;11.104;2023-05-18T04:22:19;4.77;;;2.00;;
22665;SDS011;11499;49.486;11.104;2023-05-18T04:24:45;5.17;;;2.40;;
22665;SDS011;11499;49.486;11.104;2023-05-18T04:27:11;4.30;;;2.50;;
22665;SDS011;11499;49.486;11.104;2023-05-18T04:29:37;6.00;;;2.90;;
22665;SDS011;11499;49.486;11.104;2023-05-18T04:32:05;4.83;;;2.10;;
22665;SDS011;11499;49.486;11.104;2023-05-18T04:36:18;4.27;;;2.53;;
22665;SDS011;11499;49.486;11.104;2023-05-18T04:38:44;3.47;;;2.13;;
22665;SDS011;11499;49.486;11.104;2023-05-18T04:41:10;6.03;;;2.40;;
22665;SDS011;11499;49.486;11.104;2023-05-18T04:43:36;6.57;;;3.03;;
22665;SDS011;11499;49.486;11.104;2023-05-18T04:46:01;4.70;;;2.63;;
22665;SDS011;11499;49.486;11.104;2023-05-18T04:48:28;6.67;;;2.70;;
22665;SDS011;11499;49.486;11.104;2023-05-18T04:50:54;6.90;;;2.60;;
22665;SDS011;11499;49.486;11.104;2023-05-18T04:53:20;4.43;;;2.77;;
22665;SDS011;11499;49.486;11.104;2023-05-18T04:55:49;3.50;;;2.60;;
22665;SDS011;11499;49.486;11.104;2023-05-18T04:58:16;6.97;;;3.03;;
22665;SDS011;11499;49.486;11.104;2023-05-18T05:03:23;5.63;;;2.50;;
22665;SDS011;11499;49.486;11.104;2023-05-18T05:05:48;6.27;;;2.77;;
22665;SDS011;11499;49.486;11.104;2023-05-18T05:08:14;7.90;;;3.40;;
22665;SDS011;11499;49.486;11.104;2023-05-18T05:10:40;6.13;;;2.83;;
22665;SDS011;11499;49.486;11.104;2023-05-18T05:13:05;7.00;;;2.80;;
22665;SDS011;11499;49.486;11.104;2023-05-18T05:15:31;6.03;;;3.43;;
22665;SDS011;11499;49.486;11.104;2023-05-18T05:17:58;5.93;;;2.77;;
22665;SDS011;11499;49.486;11.104;2023-05-18T05:20:23;6.50;;;2.73;;
22665;SDS011;11499;49.486;11.104;2023-05-18T05:22:49;7.90;;;3.10;;
22665;SDS011;11499;49.486;11.104;2023-05-18T05:25:14;8.80;;;3.23;;
22665;SDS011;11499;49.486;11.104;2023-05-18T05:30:29;5.57;;;2.70;;
22665;SDS011;11499;49.486;11.104;2023-05-18T05:32:54;6.70;;;2.80;;
22665;SDS011;11499;49.486;11.104;2023-05-18T05:35:20;5.03;;;2.90;;
22665;SDS011;11499;49.486;11.104;2023-05-18T05:37:45;6.13;;;2.70;;
22665;SDS011;11499;49.486;11.104;2023-05-18T05:40:11;8.57;;;3.13;;
22665;SDS011;11499;49.486;11.104;2023-05-18T05:42:37;6.43;;;2.75;;
22665;SDS011;11499;49.486;11.104;2023-05-18T05:45:03;8.82;;;2.92;;
22665;SDS011;11499;49.486;11.104;2023-05-18T05:47:28;4.68;;;2.67;;
22665;SDS011;11499;49.486;11.104;2023-05-18T05:49:54;5.32;;;2.65;;
22665;SDS011;11499;49.486;11.104;2023-05-18T05:52:20;7.15;;;3.25;;
22665;SDS011;11499;49.486;11.104;2023-05-18T05:54:45;7.03;;;2.80;;
22665;SDS011;11499;49.486;11.104;2023-05-18T05:57:11;8.00;;;2.45;;
22665;SDS011;11499;49.486;11.104;2023-05-18T06:02:19;5.03;;;2.60;;
22665;SDS011;11499;49.486;11.104;2023-05-18T06:04:45;4.20;;;2.37;;
22665;SDS011;11499;49.486;11.104;2023-05-18T06:07:10;4.47;;;2.53;;
22665;SDS011;11499;49.486;11.104;2023-05-18T06:09:36;5.93;;;2.87;;
22665;SDS011;11499;49.486;11.104;2023-05-18T06:12:02;6.20;;;2.87;;
22665;SDS011;11499;49.486;11.104;2023-05-18T06:14:28;6.20;;;2.60;;
22665;SDS011;11499;49.486;11.104;2023-05-18T06:16:54;7.33;;;2.20;;
22665;SDS011;11499;49.486;11.104;2023-05-18T06:19:19;4.93;;;2.50;;
22665;SDS011;11499;49.486;11.104;2023-05-18T06:21:45;7.00;;;2.60;;
22665;SDS011;11499;49.486;11.104;2023-05-18T06:24:10;5.70;;;2.60;;
22665;SDS011;11499;49.486;11.104;2023-05-18T06:26:36;5.07;;;2.00;;
22665;SDS011;11499;49.486;11.104;2023-05-18T06:29:01;5.60;;;2.43;;
22665;SDS011;11499;49.486;11.104;2023-05-18T06:34:28;7.20;;;2.30;;
22665;SDS011;11499;49.486;11.104;2023-05-18T06:36:54;8.10;;;2.27;;
22665;SDS011;11499;49.486;11.104;2023-05-18T06:39:20;4.63;;;2.13;;
22665;SDS011;11499;49.486;11.104;2023-05-18T06:41:45;7.00;;;2.80;;
22665;SDS011;11499;49.486;11.104;2023-05-18T06:44:11;5.93;;;2.33;;
22665;SDS011;11499;49.486;11.104;2023-05-18T06:46:37;5.77;;;2.20;;
22665;SDS011;11499;49.486;11.104;2023-05-18T06:49:03;5.77;;;2.30;;
22665;SDS011;11499;49.486;11.104;2023-05-18T06:51:28;6.17;;;2.37;;
22665;SDS011;11499;49.486;11.104;2023-05-18T06:53:55;4.63;;;1.93;;
22665;SDS011;11499;49.486;11.104;2023-05-18T06:56:20;6.07;;;2.10;;
22665;SDS011;11499;49.486;11.104;2023-05-18T06:58:46;8.03;;;2.67;;
22665;SDS011;11499;49.486;11.104;2023-05-18T07:04:36;4.63;;;1.97;;
22665;SDS011;11499;49.486;11.104;2023-05-18T07:07:01;6.03;;;2.40;;
22665;SDS011;11499;49.486;11.104;2023-05-18T07:09:27;5.67;;;2.33;;
22665;SDS011;11499;49.486;11.104;2023-05-18T07:11:52;5.37;;;2.57;;
22665;SDS011;11499;49.486;11.104;2023-05-18T07:14:18;4.50;;;2.00;;
22665;SDS011;11499;49.486;11.104;2023-05-18T07:16:43;7.73;;;2.37;;
22665;SDS011;11499;49.486;11.104;2023-05-18T07:19:11;6.23;;;2.27;;
22665;SDS011;11499;49.486;11.104;2023-05-18T07:21:37;6.50;;;2.43;;
22665;SDS011;11499;49.486;11.104;2023-05-18T07:24:03;3.87;;;2.17;;
22665;SDS011;11499;49.486;11.104;2023-05-18T07:26:28;7.33;;;2.53;;
22665;SDS011;11499;49.486;11.104;2023-05-18T07:28:54;5.07;;;2.27;;
22665;SDS011;11499;49.486;11.104;2023-05-18T07:33:21;4.07;;;2.27;;
22665;SDS011;11499;49.486;11.104;2023-05-18T07:35:46;6.80;;;2.77;;
22665;SDS011;11499;49.486;11.104;2023-05-18T07:38:12;6.60;;;1.97;;
22665;SDS011;11499;49.486;11.104;2023-05-18T07:40:37;8.30;;;2.60;;
22665;SDS011;11499;49.486;11.104;2023-05-18T07:43:03;5.73;;;2.50;;
22665;SDS011;11499;49.486;11.104;2023-05-18T07:45:28;9.27;;;2.60;;
22665;SDS011;11499;49.486;11.104;2023-05-18T07:47:54;5.60;;;2.23;;
22665;SDS011;11499;49.486;11.104;2023-05-18T07:50:19;4.80;;;1.93;;
22665;SDS011;11499;49.486;11.104;2023-05-18T07:52:45;6.53;;;2.13;;
22665;SDS011;11499;49.486;11.104;2023-05-18T07:55:11;4.73;;;2.33;;
22665;SDS011;11499;49.486;11.104;2023-05-18T08:00:13;7.37;;;2.37;;
22665;SDS011;11499;49.486;11.104;2023-05-18T08:02:41;5.43;;;2.63;;
22665;SDS011;11499;49.486;11.104;2023-05-18T08:05:07;5.47;;;2.67;;
22665;SDS011;11499;49.486;11.104;2023-05-18T08:07:34;7.03;;;2.30;;
22665;SDS011;11499;49.486;11.104;2023-05-18T08:10:00;8.10;;;2.67;;
22665;SDS011;11499;49.486;11.104;2023-05-18T08:12:25;7.63;;;2.50;;
22665;SDS011;11499;49.486;11.104;2023-05-18T08:14:51;6.20;;;2.33;;
22665;SDS011;11499;49.486;11.104;2023-05-18T08:17:16;17.03;;;2.40;;
22665;SDS011;11499;49.486;11.104;2023-05-18T08:19:43;5.77;;;2.50;;
22665;SDS011;11499;49.486;11.104;2023-05-18T08:22:09;5.50;;;2.33;;
22665;SDS011;11499;49.486;11.104;2023-05-18T08:27:10;7.43;;;2.60;;
22665;SDS011;11499;49.486;11.104;2023-05-18T08:29:36;8.47;;;2.53;;
22665;SDS011;11499;49.486;11.104;2023-05-18T08:32:02;5.13;;;1.90;;
22665;SDS011;11499;49.486;11.104;2023-05-18T08:34:31;6.07;;;2.57;;
22665;SDS011;11499;49.486;11.104;2023-05-18T08:36:57;6.90;;;2.53;;
22665;SDS011;11499;49.486;11.104;2023-05-18T08:39:24;5.43;;;2.20;;
22665;SDS011;11499;49.486;11.104;2023-05-18T08:41:54;5.47;;;2.17;;
22665;SDS011;11499;49.486;11.104;2023-05-18T08:44:57;7.33;;;2.20;;
22665;SDS011;11499;49.486;11.104;2023-05-18T08:47:34;7.67;;;2.83;;
22665;SDS011;11499;49.486;11.104;2023-05-18T08:50:01;8.77;;;2.30;;
22665;SDS011;11499;49.486;11.104;2023-05-18T08:52:29;7.40;;;2.20;;
22665;SDS011;11499;49.486;11.104;2023-05-18T08:54:59;4.53;;;2.20;;
22665;SDS011;11499;49.486;11.104;2023-05-18T08:57:33;4.53;;;2.27;;
22665;SDS011;11499;49.486;11.104;2023-05-18T09:00:00;4.40;;;2.20;;
22665;SDS011;11499;49.486;11.104;2023-05-18T09:02:27;6.33;;;2.40;;
22665;SDS011;11499;49.486;11.104;2023-05-18T09:04:54;7.33;;;2.40;;
22665;SDS011;11499;49.486;11.104;2023-05-18T09:07:21;5.37;;;2.47;;
22665;SDS011;11499;49.486;11.104;2023-05-18T09:09:47;6.68;;;2.45;;
22665;SDS011;11499;49.486;11.104;2023-05-18T09:12:13;5.22;;;2.40;;
22665;SDS011;11499;49.486;11.104;2023-05-18T09:16:44;6.97;;;2.47;;
22665;SDS011;11499;49.486;11.104;2023-05-18T09:19:10;5.03;;;2.53;;
22665;SDS011;11499;49.486;11.104;2023-05-18T09:21:35;7.53;;;2.63;;
22665;SDS011;11499;49.486;11.104;2023-05-18T09:24:01;7.90;;;2.63;;
22665;SDS011;11499;49.486;11.104;2023-05-18T09:26:27;5.80;;;2.10;;
22665;SDS011;11499;49.486;11.104;2023-05-18T09:28:53;4.97;;;2.23;;
22665;SDS011;11499;49.486;11.104;2023-05-18T09:31:19;5.90;;;2.33;;
22665;SDS011;11499;49.486;11.104;2023-05-18T09:33:45;4.43;;;2.43;;
22665;SDS011;11499;49.486;11.104;2023-05-18T09:36:12;5.90;;;2.28;;
22665;SDS011;11499;49.486;11.104;2023-05-18T09:38:41;7.23;;;2.30;;
22665;SDS011;11499;49.486;11.104;2023-05-18T09:44:27;5.63;;;2.47;;
22665;SDS011;11499;49.486;11.104;2023-05-18T09:46:57;6.18;;;2.30;;
22665;SDS011;11499;49.486;11.104;2023-05-18T09:49:22;6.70;;;2.10;;
22665;SDS011;11499;49.486;11.104;2023-05-18T09:51:48;7.70;;;2.33;;
22665;SDS011;11499;49.486;11.104;2023-05-18T09:54:14;6.32;;;2.30;;
22665;SDS011;11499;49.486;11.104;2023-05-18T09:56:39;4.97;;;2.30;;
22665;SDS011;11499;49.486;11.104;2023-05-18T09:59:12;5.07;;;2.10;;
22665;SDS011;11499;49.486;11.104;2023-05-18T10:01:54;5.63;;;2.25;;
22665;SDS011;11499;49.486;11.104;2023-05-18T10:04:21;5.73;;;2.10;;
22665;SDS011;11499;49.486;11.104;2023-05-18T10:09:40;7.10;;;1.80;;
22665;SDS011;11499;49.486;11.104;2023-05-18T10:12:10;7.13;;;2.33;;
22665;SDS011;11499;49.486;11.104;2023-05-18T10:14:41;6.17;;;2.10;;
22665;SDS011;11499;49.486;11.104;2023-05-18T10:17:09;5.20;;;2.33;;
22665;SDS011;11499;49.486;11.104;2023-05-18T10:19:39;6.60;;;2.13;;
22665;SDS011;11499;49.486;11.104;2023-05-18T10:22:06;4.90;;;2.50;;
22665;SDS011;11499;49.486;11.104;2023-05-18T10:24:34;5.25;;;2.50;;
22665;SDS011;11499;49.486;11.104;2023-05-18T10:27:05;6.07;;;2.53;;
22665;SDS011;11499;49.486;11.104;2023-05-18T10:29:31;7.33;;;2.73;;
22665;SDS011;11499;49.486;11.104;2023-05-18T10:31:58;5.53;;;2.30;;
22665;SDS011;11499;49.486;11.104;2023-05-18T10:34:27;6.80;;;1.83;;
22665;SDS011;11499;49.486;11.104;2023-05-18T10:39:35;6.30;;;2.50;;
22665;SDS011;11499;49.486;11.104;2023-05-18T10:42:01;7.30;;;2.70;;
22665;SDS011;11499;49.486;11.104;2023-05-18T10:44:28;6.03;;;2.10;;
22665;SDS011;11499;49.486;11.104;2023-05-18T10:46:55;5.23;;;2.20;;
22665;SDS011;11499;49.486;11.104;2023-05-18T10:49:21;7.03;;;2.30;;
22665;SDS011;11499;49.486;11.104;2023-05-18T10:51:49;6.72;;;2.60;;
22665;SDS011;11499;49.486;11.104;2023-05-18T10:54:17;9.53;;;2.23;;
22665;SDS011;11499;49.486;11.104;2023-05-18T10:56:45;5.72;;;2.42;;
22665;SDS011;11499;49.486;11.104;2023-05-18T10:59:15;3.50;;;1.77;;
22665;SDS011;11499;49.486;11.104;2023-05-18T11:01:42;5.65;;;2.20;;
22665;SDS011;11499;49.486;11.104;2023-05-18T11:06:58;4.75;;;2.10;;
22665;SDS011;11499;49.486;11.104;2023-05-18T11:09:24;7.00;;;2.53;;
22665;SDS011;11499;49.486;11.104;2023-05-18T11:11:51;9.52;;;2.22;;
22665;SDS011;11499;49.486;11.104;2023-05-18T11:14:27;6.85;;;1.98;;
22665;SDS011;11499;49.486;11.104;2023-05-18T11:17:04;4.80;;;2.25;;
22665;SDS011;11499;49.486;11.104;2023-05-18T11:22:40;3.83;;;2.20;;
22665;SDS011;11499;49.486;11.104;2023-05-18T11:25:08;4.95;;;1.92;;
22665;SDS011;11499;49.486;11.104;2023-05-18T11:27:34;4.68;;;2.10;;
22665;SDS011;11499;49.486;11.104;2023-05-18T11:32:48;4.57;;;1.92;;
22665;SDS011;11499;49.486;11.104;2023-05-18T11:35:21;4.75;;;2.15;;
22665;SDS011;11499;49.486;11.104;2023-05-18T11:37:47;5.78;;;2.42;;
22665;SDS011;11499;49.486;11.104;2023-05-18T11:40:58;5.47;;;2.35;;
22665;SDS011;11499;49.486;11.104;2023-05-18T11:43:10;4.63;;;2.22;;
22665;SDS011;11499;49.486;11.104;2023-05-18T11:45:55;6.57;;;2.60;;
22665;SDS011;11499;49.486;11.104;2023-05-18T11:48:25;6.13;;;1.90;;
22665;SDS011;11499;49.486;11.104;2023-05-18T11:50:52;5.05;;;2.03;;
22665;SDS011;11499;49.486;11.104;2023-05-18T11:53:18;5.57;;;2.35;;
22665;SDS011;11499;49.486;11.104;2023-05-18T11:55:47;4.45;;;2.22;;
22665;SDS011;11499;49.486;11.104;2023-05-18T12:00:24;5.38;;;2.38;;
22665;SDS011;11499;49.486;11.104;2023-05-18T12:02:49;4.65;;;2.20;;
22665;SDS011;11499;49.486;11.104;2023-05-18T12:05:16;3.97;;;1.98;;
22665;SDS011;11499;49.486;11.104;2023-05-18T12:07:42;4.63;;;2.20;;
22665;SDS011;11499;49.486;11.104;2023-05-18T12:10:12;4.32;;;2.00;;
22665;SDS011;11499;49.486;11.104;2023-05-18T12:12:38;6.28;;;2.45;;
22665;SDS011;11499;49.486;11.104;2023-05-18T12:15:06;4.50;;;2.20;;
22665;SDS011;11499;49.486;11.104;2023-05-18T12:17:42;5.75;;;1.83;;
22665;SDS011;11499;49.486;11.104;2023-05-18T12:20:10;8.05;;;2.40;;
22665;SDS011;11499;49.486;11.104;2023-05-18T12:22:39;8.05;;;1.95;;
22665;SDS011;11499;49.486;11.104;2023-05-18T12:27:38;5.13;;;2.00;;
22665;SDS011;11499;49.486;11.104;2023-05-18T12:32:44;6.43;;;2.20;;
22665;SDS011;11499;49.486;11.104;2023-05-18T12:35:23;3.58;;;2.20;;
22665;SDS011;11499;49.486;11.104;2023-05-18T12:37:50;6.35;;;2.45;;
22665;SDS011;11499;49.486;11.104;2023-05-18T12:40:17;5.03;;;2.20;;
22665;SDS011;11499;49.486;11.104;2023-05-18T12:42:52;4.45;;;2.03;;
22665;SDS011;11499;49.486;11.104;2023-05-18T12:45:27;4.97;;;2.05;;
22665;SDS011;11499;49.486;11.104;2023-05-18T12:47:55;5.15;;;1.90;;
22665;SDS011;11499;49.486;11.104;2023-05-18T12:50:27;5.68;;;1.98;;
22665;SDS011;11499;49.486;11.104;2023-05-18T12:52:53;4.53;;;1.90;;
22665;SDS011;11499;49.486;11.104;2023-05-18T12:55:20;4.75;;;2.03;;
22665;SDS011;11499;49.486;11.104;2023-05-18T13:00:10;5.03;;;2.00;;
22665;SDS011;11499;49.486;11.104;2023-05-18T13:02:37;5.00;;;1.92;;
22665;SDS011;11499;49.486;11.104;2023-05-18T13:07:41;4.55;;;2.30;;
22665;SDS011;11499;49.486;11.104;2023-05-18T13:10:08;5.50;;;1.90;;
22665;SDS011;11499;49.486;11.104;2023-05-18T13:12:54;4.45;;;2.03;;
22665;SDS011;11499;49.486;11.104;2023-05-18T13:15:25;6.65;;;2.08;;
22665;SDS011;11499;49.486;11.104;2023-05-18T13:20:33;5.05;;;2.30;;
22665;SDS011;11499;49.486;11.104;2023-05-18T13:23:23;4.93;;;2.35;;
22665;SDS011;11499;49.486;11.104;2023-05-18T13:27:52;3.92;;;1.75;;
22665;SDS011;11499;49.486;11.104;2023-05-18T13:30:19;5.22;;;2.03;;
22665;SDS011;11499;49.486;11.104;2023-05-18T13:32:45;5.00;;;2.00;;
22665;SDS011;11499;49.486;11.104;2023-05-18T13:35:11;4.20;;;1.58;;
22665;SDS011;11499;49.486;11.104;2023-05-18T13:37:37;6.18;;;2.00;;
22665;SDS011;11499;49.486;11.104;2023-05-18T13:40:03;3.55;;;1.60;;
22665;SDS011;11499;49.486;11.104;2023-05-18T13:42:30;7.40;;;2.40;;
22665;SDS011;11499;49.486;11.104;2023-05-18T13:44:58;3.92;;;2.15;;
22665;SDS011;11499;49.486;11.104;2023-05-18T13:47:23;4.57;;;1.95;;
22665;SDS011;11499;49.486;11.104;2023-05-18T13:49:49;3.95;;;2.00;;
22665;SDS011;11499;49.486;11.104;2023-05-18T13:52:15;3.45;;;1.75;;
22665;SDS011;11499;49.486;11.104;2023-05-18T13:57:19;5.00;;;2.10;;
22665;SDS011;11499;49.486;11.104;2023-05-18T13:59:44;3.35;;;2.00;;
22665;SDS011;11499;49.486;11.104;2023-05-18T14:02:11;6.80;;;2.30;;
22665;SDS011;11499;49.486;11.104;2023-05-18T14:04:36;6.65;;;2.17;;
22665;SDS011;11499;49.486;11.104;2023-05-18T14:07:02;5.97;;;2.05;;
22665;SDS011;11499;49.486;11.104;2023-05-18T14:09:27;3.50;;;1.73;;
22665;SDS011;11499;49.486;11.104;2023-05-18T14:11:53;5.05;;;1.98;;
22665;SDS011;11499;49.486;11.104;2023-05-18T14:14:19;5.57;;;2.15;;
22665;SDS011;11499;49.486;11.104;2023-05-18T14:16:45;4.35;;;2.30;;
22665;SDS011;11499;49.486;11.104;2023-05-18T14:19:11;5.15;;;1.88;;
22665;SDS011;11499;49.486;11.104;2023-05-18T14:24:38;5.38;;;2.15;;
22665;SDS011;11499;49.486;11.104;2023-05-18T14:27:03;4.20;;;1.80;;
22665;SDS011;11499;49.486;11.104;2023-05-18T14:29:29;3.65;;;2.08;;
22665;SDS011;11499;49.486;11.104;2023-05-18T14:31:54;3.78;;;2.00;;
22665;SDS011;11499;49.486;11.104;2023-05-18T14:34:20;4.15;;;1.60;;
22665;SDS011;11499;49.486;11.104;2023-05-18T14:36:45;6.45;;;2.17;;
22665;SDS011;11499;49.486;11.104;2023-05-18T14:39:11;3.22;;;1.67;;
22665;SDS011;11499;49.486;11.104;2023-05-18T14:41:36;3.70;;;1.92;;
22665;SDS011;11499;49.486;11.104;2023-05-18T14:44:01;4.78;;;2.13;;
22665;SDS011;11499;49.486;11.104;2023-05-18T14:46:32;5.53;;;2.42;;
22665;SDS011;11499;49.486;11.104;2023-05-18T14:52:00;8.80;;;2.70;;
22665;SDS011;11499;49.486;11.104;2023-05-18T14:54:25;4.97;;;1.90;;
22665;SDS011;11499;49.486;11.104;2023-05-18T14:56:51;8.07;;;2.13;;
22665;SDS011;11499;49.486;11.104;2023-05-18T14:59:16;4.43;;;2.00;;
22665;SDS011;11499;49.486;11.104;2023-05-18T15:01:42;3.33;;;1.90;;
22665;SDS011;11499;49.486;11.104;2023-05-18T15:04:07;6.15;;;1.88;;
22665;SDS011;11499;49.486;11.104;2023-05-18T15:06:33;6.43;;;2.13;;
22665;SDS011;11499;49.486;11.104;2023-05-18T15:08:58;4.00;;;2.13;;
22665;SDS011;11499;49.486;11.104;2023-05-18T15:11:24;5.80;;;2.17;;
22665;SDS011;11499;49.486;11.104;2023-05-18T15:13:50;3.78;;;2.20;;
22665;SDS011;11499;49.486;11.104;2023-05-18T15:19:24;5.18;;;2.05;;
22665;SDS011;11499;49.486;11.104;2023-05-18T15:21:50;2.92;;;2.00;;
22665;SDS011;11499;49.486;11.104;2023-05-18T15:24:15;4.97;;;2.00;;
22665;SDS011;11499;49.486;11.104;2023-05-18T15:26:41;4.45;;;2.20;;
22665;SDS011;11499;49.486;11.104;2023-05-18T15:29:07;8.05;;;2.53;;
22665;SDS011;11499;49.486;11.104;2023-05-18T15:31:32;4.78;;;2.30;;
22665;SDS011;11499;49.486;11.104;2023-05-18T15:34:00;3.90;;;1.80;;
22665;SDS011;11499;49.486;11.104;2023-05-18T15:36:26;5.50;;;2.90;;
22665;SDS011;11499;49.486;11.104;2023-05-18T15:38:51;6.38;;;2.45;;
22665;SDS011;11499;49.486;11.104;2023-05-18T15:41:17;5.57;;;2.05;;
22665;SDS011;11499;49.486;11.104;2023-05-18T15:46:51;6.05;;;2.17;;
22665;SDS011;11499;49.486;11.104;2023-05-18T15:49:17;5.13;;;2.35;;
22665;SDS011;11499;49.486;11.104;2023-05-18T15:51:43;5.68;;;1.83;;
22665;SDS011;11499;49.486;11.104;2023-05-18T15:54:09;3.97;;;1.90;;
22665;SDS011;11499;49.486;11.104;2023-05-18T15:56:34;2.70;;;1.58;;
22665;SDS011;11499;49.486;11.104;2023-05-18T15:59:00;3.60;;;2.03;;
22665;SDS011;11499;49.486;11.104;2023-05-18T16:01:25;4.38;;;1.83;;
22665;SDS011;11499;49.486;11.104;2023-05-18T16:03:51;2.95;;;1.75;;
22665;SDS011;11499;49.486;11.104;2023-05-18T16:06:16;4.55;;;1.85;;
22665;SDS011;11499;49.486;11.104;2023-05-18T16:08:42;4.93;;;1.65;;
22665;SDS011;11499;49.486;11.104;2023-05-18T16:14:08;5.13;;;2.33;;
22665;SDS011;11499;49.486;11.104;2023-05-18T16:16:34;3.65;;;1.98;;
22665;SDS011;11499;49.486;11.104;2023-05-18T16:18:59;3.53;;;1.80;;
22665;SDS011;11499;49.486;11.104;2023-05-18T16:21:26;4.45;;;1.65;;
22665;SDS011;11499;49.486;11.104;2023-05-18T16:23:51;5.30;;;2.75;;